sensor_id;sensor_type;location;lat;lon;timestamp;pressure;altitude;pressure_sealevel;temperature;humidity
40570;BME280;26270;34.428;-119.710;2022-10-16T00:00:16;100855.06;;;24.01;60.04
40570;BME280;26270;34.428;-119.710;2022-10-16T00:02:44;100854.88;;;23.89;60.20
40570;BME280;26270;34.428;-119.710;2022-10-16T00:05:12;100857.31;;;23.64;60.89
40570;BME280;26270;34.428;-119.710;2022-10-16T00:07:40;100852.67;;;23.74;60.80
40570;BME280;26270;34.428;-119.710;2022-10-16T00:10:09;100850.92;;;23.86;60.72
40570;BME280;26270;34.428;-119.710;2022-10-16T00:12:37;100852.02;;;23.87;59.86
40570;BME280;26270;34.428;-119.710;2022-10-16T00:15:06;100853.23;;;23.65;60.06
40570;BME280;26270;34.428;-119.710;2022-10-16T00:17:34;100852.27;;;23.50;60.32
40570;BME280;26270;34.428;-119.710;2022-10-16T00:20:03;100845.81;;;23.38;60.21
40570;BME280;26270;34.428;-119.710;2022-10-16T00:22:31;100846.34;;;23.34;60.70
40570;BME280;26270;34.428;-119.710;2022-10-16T00:25:00;100843.58;;;23.29;60.19
40570;BME280;26270;34.428;-119.710;2022-10-16T00:27:28;100844.54;;;23.14;60.27
40570;BME280;26270;34.428;-119.710;2022-10-16T00:29:56;100842.40;;;23.27;60.42
40570;BME280;26270;34.428;-119.710;2022-10-16T00:32:25;100836.44;;;23.03;60.38
40570;BME280;26270;34.428;-119.710;2022-10-16T00:34:53;100840.05;;;22.92;60.69
40570;BME280;26270;34.428;-119.710;2022-10-16T00:37:21;100841.81;;;22.96;60.91
40570;BME280;26270;34.428;-119.710;2022-10-16T00:39:49;100846.38;;;22.76;61.01
40570;BME280;26270;34.428;-119.710;2022-10-16T00:42:18;100846.00;;;22.79;60.81
40570;BME280;26270;34.428;-119.710;2022-10-16T00:44:49;100843.70;;;22.88;60.44
40570;BME280;26270;34.428;-119.710;2022-10-16T00:47:21;100843.01;;;22.80;60.69
40570;BME280;26270;34.428;-119.710;2022-10-16T00:49:54;100843.69;;;22.63;61.34
40570;BME280;26270;34.428;-119.710;2022-10-16T00:52:24;100847.57;;;22.84;60.96
40570;BME280;26270;34.428;-119.710;2022-10-16T00:54:53;100853.85;;;22.91;61.28
40570;BME280;26270;34.428;-119.710;2022-10-16T00:57:22;100859.78;;;22.83;61.72
40570;BME280;26270;34.428;-119.710;2022-10-16T00:59:51;100861.29;;;22.71;62.00
40570;BME280;26270;34.428;-119.710;2022-10-16T01:02:20;100865.86;;;22.80;62.07
40570;BME280;26270;34.428;-119.710;2022-10-16T01:04:51;100868.77;;;22.70;62.12
40570;BME280;26270;34.428;-119.710;2022-10-16T01:07:30;100869.02;;;22.85;61.74
40570;BME280;26270;34.428;-119.710;2022-10-16T01:10:09;100876.79;;;22.93;62.03
40570;BME280;26270;34.428;-119.710;2022-10-16T01:12:44;100879.03;;;22.67;61.93
40570;BME280;26270;34.428;-119.710;2022-10-16T01:15:19;100880.55;;;22.63;61.82
40570;BME280;26270;34.428;-119.710;2022-10-16T01:17:56;100884.17;;;22.78;61.21
40570;BME280;26270;34.428;-119.710;2022-10-16T01:20:29;100890.48;;;22.67;61.60
40570;BME280;26270;34.428;-119.710;2022-10-16T01:23:06;100893.36;;;22.71;61.05
40570;BME280;26270;34.428;-119.710;2022-10-16T01:26:00;100898.11;;;22.69;60.80
40570;BME280;26270;34.428;-119.710;2022-10-16T01:28:36;100894.15;;;22.68;60.69
40570;BME280;26270;34.428;-119.710;2022-10-16T01:31:07;100894.58;;;22.66;61.18
40570;BME280;26270;34.428;-119.710;2022-10-16T01:33:42;100896.75;;;22.73;61.00
40570;BME280;26270;34.428;-119.710;2022-10-16T01:36:15;100896.05;;;22.64;61.52
40570;BME280;26270;34.428;-119.710;2022-10-16T01:38:49;100898.86;;;22.60;61.44
40570;BME280;26270;34.428;-119.710;2022-10-16T01:41:22;100896.57;;;22.70;61.56
40570;BME280;26270;34.428;-119.710;2022-10-16T01:43:57;100897.79;;;22.67;61.52
40570;BME280;26270;34.428;-119.710;2022-10-16T01:46:27;100892.81;;;22.60;61.39
40570;BME280;26270;34.428;-119.710;2022-10-16T01:48:56;100898.04;;;22.62;61.61
40570;BME280;26270;34.428;-119.710;2022-10-16T01:51:26;100899.74;;;22.59;61.68
40570;BME280;26270;34.428;-119.710;2022-10-16T01:54:00;100900.87;;;22.49;62.16
40570;BME280;26270;34.428;-119.710;2022-10-16T01:56:30;100903.50;;;22.52;62.16
40570;BME280;26270;34.428;-119.710;2022-10-16T01:59:02;100910.00;;;22.46;62.50
40570;BME280;26270;34.428;-119.710;2022-10-16T02:01:34;100912.94;;;22.52;62.58
40570;BME280;26270;34.428;-119.710;2022-10-16T02:04:13;100911.80;;;22.53;62.13
40570;BME280;26270;34.428;-119.710;2022-10-16T02:06:42;100909.44;;;22.51;61.71
40570;BME280;26270;34.428;-119.710;2022-10-16T02:09:11;100913.79;;;22.66;61.44
40570;BME280;26270;34.428;-119.710;2022-10-16T02:11:39;100924.10;;;22.24;61.25
40570;BME280;26270;34.428;-119.710;2022-10-16T02:14:07;100930.81;;;22.42;61.18
40570;BME280;26270;34.428;-119.710;2022-10-16T02:16:37;100936.47;;;22.31;60.88
40570;BME280;26270;34.428;-119.710;2022-10-16T02:19:07;100937.00;;;22.43;60.26
40570;BME280;26270;34.428;-119.710;2022-10-16T02:21:41;100939.72;;;22.53;60.62
40570;BME280;26270;34.428;-119.710;2022-10-16T02:24:19;100949.54;;;22.40;61.42
40570;BME280;26270;34.428;-119.710;2022-10-16T02:26:52;100954.10;;;22.56;60.87
40570;BME280;26270;34.428;-119.710;2022-10-16T02:29:26;100954.11;;;22.56;60.54
40570;BME280;26270;34.428;-119.710;2022-10-16T02:31:58;100950.48;;;22.45;60.16
40570;BME280;26270;34.428;-119.710;2022-10-16T02:34:30;100952.41;;;22.39;59.88
40570;BME280;26270;34.428;-119.710;2022-10-16T02:37:02;100954.33;;;22.52;60.04
40570;BME280;26270;34.428;-119.710;2022-10-16T02:39:32;100957.66;;;22.51;60.19
40570;BME280;26270;34.428;-119.710;2022-10-16T02:42:01;100964.96;;;22.58;59.66
40570;BME280;26270;34.428;-119.710;2022-10-16T02:44:30;100972.70;;;22.48;59.20
40570;BME280;26270;34.428;-119.710;2022-10-16T02:46:58;100975.37;;;22.52;59.61
40570;BME280;26270;34.428;-119.710;2022-10-16T02:49:26;100972.55;;;22.45;59.49
40570;BME280;26270;34.428;-119.710;2022-10-16T02:51:54;100968.10;;;22.24;59.97
40570;BME280;26270;34.428;-119.710;2022-10-16T02:54:23;100968.34;;;22.38;59.65
40570;BME280;26270;34.428;-119.710;2022-10-16T02:56:51;100970.27;;;22.53;59.16
40570;BME280;26270;34.428;-119.710;2022-10-16T02:59:19;100973.47;;;22.61;59.60
40570;BME280;26270;34.428;-119.710;2022-10-16T03:01:47;100976.99;;;22.65;59.52
40570;BME280;26270;34.428;-119.710;2022-10-16T03:04:15;100980.98;;;22.51;59.46
40570;BME280;26270;34.428;-119.710;2022-10-16T03:06:44;100979.67;;;22.58;59.57
40570;BME280;26270;34.428;-119.710;2022-10-16T03:09:12;100976.25;;;22.42;60.12
40570;BME280;26270;34.428;-119.710;2022-10-16T03:11:40;100971.53;;;22.54;59.41
40570;BME280;26270;34.428;-119.710;2022-10-16T03:14:08;100977.78;;;22.67;59.57
40570;BME280;26270;34.428;-119.710;2022-10-16T03:16:36;100983.84;;;22.54;59.17
40570;BME280;26270;34.428;-119.710;2022-10-16T03:19:05;100985.58;;;22.68;59.06
40570;BME280;26270;34.428;-119.710;2022-10-16T03:21:33;100989.88;;;22.43;59.73
40570;BME280;26270;34.428;-119.710;2022-10-16T03:24:01;100993.83;;;22.43;59.68
40570;BME280;26270;34.428;-119.710;2022-10-16T03:26:29;100997.75;;;22.53;60.22
40570;BME280;26270;34.428;-119.710;2022-10-16T03:28:58;100999.46;;;22.34;60.41
40570;BME280;26270;34.428;-119.710;2022-10-16T03:31:26;101002.02;;;22.40;60.87
40570;BME280;26270;34.428;-119.710;2022-10-16T03:33:54;101007.61;;;22.42;60.73
40570;BME280;26270;34.428;-119.710;2022-10-16T03:36:23;101007.42;;;22.46;60.50
40570;BME280;26270;34.428;-119.710;2022-10-16T03:38:51;101006.88;;;22.50;60.78
40570;BME280;26270;34.428;-119.710;2022-10-16T03:41:19;101004.93;;;22.43;61.29
40570;BME280;26270;34.428;-119.710;2022-10-16T03:43:47;101007.06;;;22.30;61.16
40570;BME280;26270;34.428;-119.710;2022-10-16T03:46:15;101005.94;;;22.65;60.77
40570;BME280;26270;34.428;-119.710;2022-10-16T03:48:43;101007.33;;;22.50;61.34
40570;BME280;26270;34.428;-119.710;2022-10-16T03:51:12;101006.65;;;22.50;61.22
40570;BME280;26270;34.428;-119.710;2022-10-16T03:53:40;101011.23;;;22.18;61.31
40570;BME280;26270;34.428;-119.710;2022-10-16T03:56:08;101010.03;;;22.38;62.04
40570;BME280;26270;34.428;-119.710;2022-10-16T03:58:36;101008.02;;;22.45;61.90
40570;BME280;26270;34.428;-119.710;2022-10-16T04:03:20;101007.34;;;22.40;61.65
40570;BME280;26270;34.428;-119.710;2022-10-16T04:05:48;101008.90;;;22.35;62.66
40570;BME280;26270;34.428;-119.710;2022-10-16T04:08:17;101007.29;;;22.44;62.00
40570;BME280;26270;34.428;-119.710;2022-10-16T04:10:45;101009.48;;;22.28;61.72
40570;BME280;26270;34.428;-119.710;2022-10-16T04:13:13;101010.97;;;22.36;61.39
40570;BME280;26270;34.428;-119.710;2022-10-16T04:15:41;101014.79;;;22.39;61.59
40570;BME280;26270;34.428;-119.710;2022-10-16T04:18:09;101018.80;;;22.37;61.68
40570;BME280;26270;34.428;-119.710;2022-10-16T04:20:38;101019.24;;;22.57;61.57
40570;BME280;26270;34.428;-119.710;2022-10-16T04:23:06;101014.58;;;22.54;61.00
40570;BME280;26270;34.428;-119.710;2022-10-16T04:25:34;101015.63;;;22.58;61.19
40570;BME280;26270;34.428;-119.710;2022-10-16T04:28:02;101019.88;;;22.44;62.30
40570;BME280;26270;34.428;-119.710;2022-10-16T04:30:30;101022.38;;;22.26;63.14
40570;BME280;26270;34.428;-119.710;2022-10-16T04:33:04;101022.38;;;22.49;62.72
40570;BME280;26270;34.428;-119.710;2022-10-16T04:35:32;101023.37;;;22.43;63.08
40570;BME280;26270;34.428;-119.710;2022-10-16T04:38:00;101027.48;;;22.43;62.94
40570;BME280;26270;34.428;-119.710;2022-10-16T04:40:29;101028.80;;;22.36;63.38
40570;BME280;26270;34.428;-119.710;2022-10-16T04:42:57;101027.71;;;22.46;63.39
40570;BME280;26270;34.428;-119.710;2022-10-16T04:45:25;101026.06;;;22.35;63.79
40570;BME280;26270;34.428;-119.710;2022-10-16T04:47:56;101029.95;;;22.50;63.71
40570;BME280;26270;34.428;-119.710;2022-10-16T04:50:24;101030.74;;;22.32;64.00
40570;BME280;26270;34.428;-119.710;2022-10-16T04:52:53;101029.42;;;22.47;63.44
40570;BME280;26270;34.428;-119.710;2022-10-16T04:55:21;101031.73;;;22.49;63.06
40570;BME280;26270;34.428;-119.710;2022-10-16T04:57:49;101032.06;;;22.46;63.33
40570;BME280;26270;34.428;-119.710;2022-10-16T05:00:17;101032.54;;;22.35;62.96
40570;BME280;26270;34.428;-119.710;2022-10-16T05:02:45;101031.12;;;22.29;63.54
40570;BME280;26270;34.428;-119.710;2022-10-16T05:05:14;101039.02;;;22.22;65.88
40570;BME280;26270;34.428;-119.710;2022-10-16T05:07:42;101041.77;;;22.25;64.56
40570;BME280;26270;34.428;-119.710;2022-10-16T05:10:11;101038.30;;;22.09;64.77
40570;BME280;26270;34.428;-119.710;2022-10-16T05:12:39;101038.41;;;22.34;64.87
40570;BME280;26270;34.428;-119.710;2022-10-16T05:15:09;101033.42;;;22.15;64.93
40570;BME280;26270;34.428;-119.710;2022-10-16T05:17:37;101031.64;;;22.38;65.06
40570;BME280;26270;34.428;-119.710;2022-10-16T05:20:06;101030.55;;;22.32;65.32
40570;BME280;26270;34.428;-119.710;2022-10-16T05:22:34;101031.86;;;22.13;65.48
40570;BME280;26270;34.428;-119.710;2022-10-16T05:25:02;101031.87;;;22.17;65.53
40570;BME280;26270;34.428;-119.710;2022-10-16T05:27:30;101027.31;;;22.20;65.40
40570;BME280;26270;34.428;-119.710;2022-10-16T05:29:59;101023.88;;;22.11;65.64
40570;BME280;26270;34.428;-119.710;2022-10-16T05:32:27;101021.33;;;22.21;65.58
40570;BME280;26270;34.428;-119.710;2022-10-16T05:34:55;101023.14;;;22.09;65.54
40570;BME280;26270;34.428;-119.710;2022-10-16T05:37:23;101024.34;;;22.09;65.65
40570;BME280;26270;34.428;-119.710;2022-10-16T05:39:52;101021.75;;;22.16;65.72
40570;BME280;26270;34.428;-119.710;2022-10-16T05:42:21;101022.48;;;22.25;65.57
40570;BME280;26270;34.428;-119.710;2022-10-16T05:44:49;101025.60;;;22.17;65.63
40570;BME280;26270;34.428;-119.710;2022-10-16T05:47:17;101023.38;;;22.16;65.40
40570;BME280;26270;34.428;-119.710;2022-10-16T05:49:46;101024.31;;;22.14;65.46
40570;BME280;26270;34.428;-119.710;2022-10-16T05:52:14;101030.68;;;22.30;65.28
40570;BME280;26270;34.428;-119.710;2022-10-16T05:54:42;101036.67;;;22.17;65.78
40570;BME280;26270;34.428;-119.710;2022-10-16T05:57:10;101034.96;;;22.13;65.33
40570;BME280;26270;34.428;-119.710;2022-10-16T05:59:39;101031.54;;;21.95;65.57
40570;BME280;26270;34.428;-119.710;2022-10-16T06:02:10;101029.79;;;21.99;65.62
40570;BME280;26270;34.428;-119.710;2022-10-16T06:04:40;101023.40;;;22.10;65.23
40570;BME280;26270;34.428;-119.710;2022-10-16T06:07:08;101023.79;;;22.14;65.27
40570;BME280;26270;34.428;-119.710;2022-10-16T06:09:36;101024.45;;;22.11;64.88
40570;BME280;26270;34.428;-119.710;2022-10-16T06:12:05;101027.41;;;22.18;65.14
40570;BME280;26270;34.428;-119.710;2022-10-16T06:14:33;101031.97;;;22.09;65.06
40570;BME280;26270;34.428;-119.710;2022-10-16T06:17:02;101032.45;;;22.13;64.94
40570;BME280;26270;34.428;-119.710;2022-10-16T06:19:29;101035.70;;;22.11;65.05
40570;BME280;26270;34.428;-119.710;2022-10-16T06:21:58;101032.21;;;22.26;65.11
40570;BME280;26270;34.428;-119.710;2022-10-16T06:24:26;101035.94;;;22.24;64.90
40570;BME280;26270;34.428;-119.710;2022-10-16T06:26:54;101044.11;;;22.23;64.71
40570;BME280;26270;34.428;-119.710;2022-10-16T06:29:22;101053.63;;;22.23;64.44
40570;BME280;26270;34.428;-119.710;2022-10-16T06:31:51;101059.74;;;22.19;64.47
40570;BME280;26270;34.428;-119.710;2022-10-16T06:34:19;101066.29;;;21.96;65.37
40570;BME280;26270;34.428;-119.710;2022-10-16T06:36:47;101075.67;;;22.20;65.32
40570;BME280;26270;34.428;-119.710;2022-10-16T06:39:15;101079.52;;;22.21;65.21
40570;BME280;26270;34.428;-119.710;2022-10-16T06:41:43;101080.72;;;22.04;65.37
40570;BME280;26270;34.428;-119.710;2022-10-16T06:44:12;101085.96;;;21.85;65.75
40570;BME280;26270;34.428;-119.710;2022-10-16T06:46:40;101092.03;;;21.93;65.41
40570;BME280;26270;34.428;-119.710;2022-10-16T06:49:08;101102.97;;;22.10;65.52
40570;BME280;26270;34.428;-119.710;2022-10-16T06:51:36;101108.68;;;22.03;65.93
40570;BME280;26270;34.428;-119.710;2022-10-16T06:54:05;101110.38;;;22.00;65.92
40570;BME280;26270;34.428;-119.710;2022-10-16T06:56:35;101107.15;;;22.14;66.05
40570;BME280;26270;34.428;-119.710;2022-10-16T06:59:04;101106.38;;;22.06;66.71
40570;BME280;26270;34.428;-119.710;2022-10-16T07:01:32;101105.31;;;21.87;66.39
40570;BME280;26270;34.428;-119.710;2022-10-16T07:04:01;101111.08;;;22.00;66.50
40570;BME280;26270;34.428;-119.710;2022-10-16T07:06:32;101116.65;;;22.02;66.75
40570;BME280;26270;34.428;-119.710;2022-10-16T07:09:02;101124.10;;;21.99;67.14
40570;BME280;26270;34.428;-119.710;2022-10-16T07:11:31;101120.53;;;22.01;66.93
40570;BME280;26270;34.428;-119.710;2022-10-16T07:14:00;101120.62;;;21.98;66.97
40570;BME280;26270;34.428;-119.710;2022-10-16T07:16:30;101117.13;;;21.77;67.75
40570;BME280;26270;34.428;-119.710;2022-10-16T07:19:01;101113.16;;;21.79;67.70
40570;BME280;26270;34.428;-119.710;2022-10-16T07:21:32;101110.56;;;21.90;67.69
40570;BME280;26270;34.428;-119.710;2022-10-16T07:24:01;101108.96;;;21.95;67.14
40570;BME280;26270;34.428;-119.710;2022-10-16T07:26:32;101105.15;;;21.79;66.91
40570;BME280;26270;34.428;-119.710;2022-10-16T07:29:01;101102.21;;;21.91;66.72
40570;BME280;26270;34.428;-119.710;2022-10-16T07:31:29;101104.72;;;21.87;66.58
40570;BME280;26270;34.428;-119.710;2022-10-16T07:33:59;101104.71;;;21.84;66.71
40570;BME280;26270;34.428;-119.710;2022-10-16T07:36:28;101098.55;;;21.80;66.34
40570;BME280;26270;34.428;-119.710;2022-10-16T07:38:56;101102.36;;;21.87;66.36
40570;BME280;26270;34.428;-119.710;2022-10-16T07:41:24;101100.75;;;21.70;66.87
40570;BME280;26270;34.428;-119.710;2022-10-16T07:43:53;101104.56;;;21.89;66.70
40570;BME280;26270;34.428;-119.710;2022-10-16T07:46:23;101098.49;;;21.90;66.58
40570;BME280;26270;34.428;-119.710;2022-10-16T07:48:52;101093.85;;;21.92;66.79
40570;BME280;26270;34.428;-119.710;2022-10-16T07:51:23;101088.04;;;21.60;67.34
40570;BME280;26270;34.428;-119.710;2022-10-16T07:53:53;101085.70;;;21.62;67.55
40570;BME280;26270;34.428;-119.710;2022-10-16T07:56:22;101086.90;;;21.26;68.34
40570;BME280;26270;34.428;-119.710;2022-10-16T07:58:51;101085.84;;;21.44;68.78
40570;BME280;26270;34.428;-119.710;2022-10-16T08:01:25;101082.25;;;21.52;68.50
40570;BME280;26270;34.428;-119.710;2022-10-16T08:03:53;101075.68;;;21.67;68.10
40570;BME280;26270;34.428;-119.710;2022-10-16T08:06:22;101069.64;;;21.74;67.94
40570;BME280;26270;34.428;-119.710;2022-10-16T08:08:50;101064.37;;;21.67;67.90
40570;BME280;26270;34.428;-119.710;2022-10-16T08:11:18;101065.99;;;21.71;68.27
40570;BME280;26270;34.428;-119.710;2022-10-16T08:13:47;101067.15;;;21.80;68.13
40570;BME280;26270;34.428;-119.710;2022-10-16T08:16:15;101067.15;;;21.59;68.52
40570;BME280;26270;34.428;-119.710;2022-10-16T08:18:43;101064.46;;;21.60;68.72
40570;BME280;26270;34.428;-119.710;2022-10-16T08:21:15;101060.63;;;21.81;68.41
40570;BME280;26270;34.428;-119.710;2022-10-16T08:23:43;101059.66;;;21.75;68.25
40570;BME280;26270;34.428;-119.710;2022-10-16T08:26:12;101053.86;;;21.65;68.30
40570;BME280;26270;34.428;-119.710;2022-10-16T08:28:40;101052.98;;;21.58;68.39
40570;BME280;26270;34.428;-119.710;2022-10-16T08:31:11;101050.00;;;21.77;68.19
40570;BME280;26270;34.428;-119.710;2022-10-16T08:33:42;101049.72;;;21.69;68.08
40570;BME280;26270;34.428;-119.710;2022-10-16T08:36:11;101051.54;;;21.93;67.72
40570;BME280;26270;34.428;-119.710;2022-10-16T08:38:39;101055.01;;;21.71;68.05
40570;BME280;26270;34.428;-119.710;2022-10-16T08:41:25;101052.75;;;21.68;68.18
40570;BME280;26270;34.428;-119.710;2022-10-16T08:44:08;101055.04;;;21.77;68.31
40570;BME280;26270;34.428;-119.710;2022-10-16T08:46:47;101051.34;;;21.67;68.29
40570;BME280;26270;34.428;-119.710;2022-10-16T08:49:19;101050.20;;;21.74;68.24
40570;BME280;26270;34.428;-119.710;2022-10-16T08:51:47;101053.28;;;21.74;68.22
40570;BME280;26270;34.428;-119.710;2022-10-16T08:54:26;101055.39;;;21.81;68.01
40570;BME280;26270;34.428;-119.710;2022-10-16T08:56:56;101058.41;;;21.66;68.13
40570;BME280;26270;34.428;-119.710;2022-10-16T08:59:24;101059.67;;;21.76;68.28
40570;BME280;26270;34.428;-119.710;2022-10-16T09:01:52;101061.19;;;21.66;68.27
40570;BME280;26270;34.428;-119.710;2022-10-16T09:04:39;101061.89;;;21.70;68.24
40570;BME280;26270;34.428;-119.710;2022-10-16T09:07:14;101068.70;;;21.76;68.24
40570;BME280;26270;34.428;-119.710;2022-10-16T09:09:57;101060.55;;;21.79;67.80
40570;BME280;26270;34.428;-119.710;2022-10-16T09:12:33;101052.48;;;21.66;67.61
40570;BME280;26270;34.428;-119.710;2022-10-16T09:15:14;101051.21;;;21.51;68.17
40570;BME280;26270;34.428;-119.710;2022-10-16T09:17:52;101049.45;;;21.59;67.77
40570;BME280;26270;34.428;-119.710;2022-10-16T09:20:31;101050.50;;;21.66;67.61
40570;BME280;26270;34.428;-119.710;2022-10-16T09:23:13;101050.05;;;21.68;67.02
40570;BME280;26270;34.428;-119.710;2022-10-16T09:25:45;101056.85;;;21.42;67.44
40570;BME280;26270;34.428;-119.710;2022-10-16T09:28:14;101057.10;;;21.56;66.44
40570;BME280;26270;34.428;-119.710;2022-10-16T09:30:42;101059.33;;;21.46;65.69
40570;BME280;26270;34.428;-119.710;2022-10-16T09:33:12;101058.38;;;21.60;65.72
40570;BME280;26270;34.428;-119.710;2022-10-16T09:35:43;101061.14;;;21.50;65.32
40570;BME280;26270;34.428;-119.710;2022-10-16T09:38:24;101063.71;;;21.49;65.15
40570;BME280;26270;34.428;-119.710;2022-10-16T09:40:53;101066.24;;;21.54;64.85
40570;BME280;26270;34.428;-119.710;2022-10-16T09:43:25;101070.88;;;21.49;64.45
40570;BME280;26270;34.428;-119.710;2022-10-16T09:45:56;101071.28;;;21.54;64.12
40570;BME280;26270;34.428;-119.710;2022-10-16T09:48:26;101069.92;;;21.47;64.05
40570;BME280;26270;34.428;-119.710;2022-10-16T09:50:58;101074.75;;;21.53;63.65
40570;BME280;26270;34.428;-119.710;2022-10-16T09:53:39;101073.03;;;21.32;63.54
40570;BME280;26270;34.428;-119.710;2022-10-16T09:56:10;101073.41;;;21.56;63.30
40570;BME280;26270;34.428;-119.710;2022-10-16T09:58:41;101070.61;;;21.51;63.42
40570;BME280;26270;34.428;-119.710;2022-10-16T10:01:14;101071.53;;;21.49;63.57
40570;BME280;26270;34.428;-119.710;2022-10-16T10:03:43;101073.31;;;21.44;64.02
40570;BME280;26270;34.428;-119.710;2022-10-16T10:06:30;101076.16;;;21.40;63.91
40570;BME280;26270;34.428;-119.710;2022-10-16T10:09:03;101084.74;;;21.44;64.09
40570;BME280;26270;34.428;-119.710;2022-10-16T10:11:47;101090.43;;;21.30;64.24
40570;BME280;26270;34.428;-119.710;2022-10-16T10:14:20;101095.28;;;21.30;64.55
40570;BME280;26270;34.428;-119.710;2022-10-16T10:16:51;101096.05;;;21.35;65.00
40570;BME280;26270;34.428;-119.710;2022-10-16T10:19:20;101095.25;;;21.33;65.36
40570;BME280;26270;34.428;-119.710;2022-10-16T10:21:50;101091.70;;;21.30;65.34
40570;BME280;26270;34.428;-119.710;2022-10-16T10:24:19;101087.37;;;21.36;65.67
40570;BME280;26270;34.428;-119.710;2022-10-16T10:26:52;101083.44;;;21.45;65.87
40570;BME280;26270;34.428;-119.710;2022-10-16T10:29:36;101085.53;;;21.35;66.02
40570;BME280;26270;34.428;-119.710;2022-10-16T10:32:18;101087.99;;;21.25;66.34
40570;BME280;26270;34.428;-119.710;2022-10-16T10:35:00;101088.67;;;21.52;66.30
40570;BME280;26270;34.428;-119.710;2022-10-16T10:37:41;101085.32;;;21.26;66.44
40570;BME280;26270;34.428;-119.710;2022-10-16T10:40:19;101084.62;;;21.38;66.51
40570;BME280;26270;34.428;-119.710;2022-10-16T10:42:55;101085.60;;;21.36;66.56
40570;BME280;26270;34.428;-119.710;2022-10-16T10:45:30;101084.98;;;21.19;66.65
40570;BME280;26270;34.428;-119.710;2022-10-16T10:48:17;101083.36;;;21.28;66.56
40570;BME280;26270;34.428;-119.710;2022-10-16T10:50:51;101084.51;;;21.32;66.60
40570;BME280;26270;34.428;-119.710;2022-10-16T10:53:29;101081.79;;;21.28;66.90
40570;BME280;26270;34.428;-119.710;2022-10-16T10:56:09;101082.33;;;21.19;67.13
40570;BME280;26270;34.428;-119.710;2022-10-16T10:58:55;101075.90;;;21.35;66.85
40570;BME280;26270;34.428;-119.710;2022-10-16T11:01:34;101075.96;;;21.29;67.01
40570;BME280;26270;34.428;-119.710;2022-10-16T11:04:27;101074.87;;;21.24;66.72
40570;BME280;26270;34.428;-119.710;2022-10-16T11:07:01;101069.24;;;21.32;66.56
40570;BME280;26270;34.428;-119.710;2022-10-16T11:09:36;101062.46;;;21.40;66.74
40570;BME280;26270;34.428;-119.710;2022-10-16T11:12:11;101056.62;;;21.39;66.65
40570;BME280;26270;34.428;-119.710;2022-10-16T11:14:45;101062.73;;;21.12;66.95
40570;BME280;26270;34.428;-119.710;2022-10-16T11:17:18;101061.20;;;21.38;66.63
40570;BME280;26270;34.428;-119.710;2022-10-16T11:19:49;101061.41;;;21.44;66.57
40570;BME280;26270;34.428;-119.710;2022-10-16T11:22:23;101059.02;;;21.27;66.75
40570;BME280;26270;34.428;-119.710;2022-10-16T11:24:58;101056.56;;;21.27;66.43
40570;BME280;26270;34.428;-119.710;2022-10-16T11:27:35;101054.12;;;21.41;66.35
40570;BME280;26270;34.428;-119.710;2022-10-16T11:30:11;101054.57;;;21.42;66.28
40570;BME280;26270;34.428;-119.710;2022-10-16T11:32:54;101053.00;;;21.38;66.51
40570;BME280;26270;34.428;-119.710;2022-10-16T11:35:30;101052.82;;;21.36;66.40
40570;BME280;26270;34.428;-119.710;2022-10-16T11:38:03;101050.78;;;21.18;66.83
40570;BME280;26270;34.428;-119.710;2022-10-16T11:40:38;101049.85;;;21.34;66.55
40570;BME280;26270;34.428;-119.710;2022-10-16T11:43:15;101048.91;;;21.31;66.46
40570;BME280;26270;34.428;-119.710;2022-10-16T11:45:48;101051.21;;;21.21;66.74
40570;BME280;26270;34.428;-119.710;2022-10-16T11:48:25;101051.40;;;21.14;67.18
40570;BME280;26270;34.428;-119.710;2022-10-16T11:51:00;101045.54;;;21.06;67.37
40570;BME280;26270;34.428;-119.710;2022-10-16T11:53:41;101045.27;;;21.02;67.54
40570;BME280;26270;34.428;-119.710;2022-10-16T11:56:13;101043.59;;;20.97;67.37
40570;BME280;26270;34.428;-119.710;2022-10-16T11:58:52;101050.76;;;21.15;67.73
40570;BME280;26270;34.428;-119.710;2022-10-16T12:01:28;101056.96;;;21.02;67.74
40570;BME280;26270;34.428;-119.710;2022-10-16T12:04:11;101062.51;;;21.05;67.84
40570;BME280;26270;34.428;-119.710;2022-10-16T12:06:46;101065.71;;;21.07;67.66
40570;BME280;26270;34.428;-119.710;2022-10-16T12:09:21;101067.96;;;20.99;67.83
40570;BME280;26270;34.428;-119.710;2022-10-16T12:11:50;101064.34;;;20.97;67.50
40570;BME280;26270;34.428;-119.710;2022-10-16T12:14:39;101058.66;;;20.99;67.70
40570;BME280;26270;34.428;-119.710;2022-10-16T12:17:39;101058.66;;;20.81;68.35
40570;BME280;26270;34.428;-119.710;2022-10-16T12:20:27;101061.61;;;20.80;68.38
40570;BME280;26270;34.428;-119.710;2022-10-16T12:22:57;101063.09;;;20.72;68.71
40570;BME280;26270;34.428;-119.710;2022-10-16T12:25:28;101062.04;;;20.75;69.20
40570;BME280;26270;34.428;-119.710;2022-10-16T12:27:59;101060.15;;;20.77;68.92
40570;BME280;26270;34.428;-119.710;2022-10-16T12:30:30;101058.12;;;20.67;69.45
40570;BME280;26270;34.428;-119.710;2022-10-16T12:33:00;101056.30;;;20.45;69.72
40570;BME280;26270;34.428;-119.710;2022-10-16T12:35:31;101059.04;;;20.58;69.78
40570;BME280;26270;34.428;-119.710;2022-10-16T12:38:14;101062.76;;;20.64;69.65
40570;BME280;26270;34.428;-119.710;2022-10-16T12:40:44;101066.81;;;20.57;69.68
40570;BME280;26270;34.428;-119.710;2022-10-16T12:43:26;101071.73;;;20.47;69.66